Time;durP1;ratioP1;P1;durP2;ratioP2;P2;SDS_P1;SDS_P2;PMS_P1;PMS_P2;Temp;Humidity;BMP_temperature;BMP_pressure;BME280_temperature;BME280_humidity;BME280_pressure;Samples;Min_cycle;Max_cycle;Signal;HPM_P1;HPM_P2
2023/12/01 00:00:34;;;;;;;28.48;17.90;;;3.70;99.90;;;;;;5041932;28;20592;-57
2023/12/01 00:03:04;;;;;;;26.33;17.08;;;3.70;99.90;;;;;;5033871;28;20230;-57
2023/12/01 00:05:32;;;;;;;25.52;16.58;;;3.70;99.90;;;;;;5033225;28;20202;-54
2023/12/01 00:07:59;;;;;;;29.90;16.30;;;3.70;99.90;;;;;;5041568;28;20277;-54
2023/12/01 00:10:27;;;;;;;24.30;15.57;;;3.70;99.90;;;;;;5033793;28;20264;-54
2023/12/01 00:12:55;;;;;;;28.02;16.92;;;3.70;99.90;;;;;;5033559;28;20289;-62
2023/12/01 00:15:23;;;;;;;28.67;17.42;;;3.70;99.90;;;;;;5033372;28;20207;-62
2023/12/01 00:17:51;;;;;;;27.60;17.73;;;3.70;99.90;;;;;;5033523;28;20258;-59
2023/12/01 00:20:20;;;;;;;27.88;16.88;;;3.70;99.90;;;;;;5033253;28;20233;-59
2023/12/01 00:22:48;;;;;;;29.58;17.35;;;3.70;99.90;;;;;;5033210;28;20292;-59
2023/12/01 00:25:16;;;;;;;28.80;16.80;;;3.70;99.90;;;;;;5033353;28;20654;-60
2023/12/01 00:27:44;;;;;;;26.52;17.38;;;3.70;99.90;;;;;;5033524;28;20237;-56
2023/12/01 00:30:12;;;;;;;28.05;17.80;;;3.70;99.90;;;;;;5033266;28;20234;-57
2023/12/01 00:32:40;;;;;;;27.17;17.90;;;3.70;99.90;;;;;;5033472;28;20678;-56
2023/12/01 00:35:09;;;;;;;28.20;16.45;;;3.70;99.90;;;;;;5032560;28;20219;-57
2023/12/01 00:37:38;;;;;;;27.83;18.02;;;3.70;99.90;;;;;;5025567;28;20217;-59
2023/12/01 00:40:10;;;;;;;27.25;17.15;;;3.70;99.90;;;;;;5033201;28;20260;-57
2023/12/01 00:42:38;;;;;;;30.58;17.17;;;3.70;99.90;;;;;;5033088;28;20266;-56
2023/12/01 00:45:06;;;;;;;27.38;16.38;;;3.70;99.90;;;;;;5033237;28;20211;-56
2023/12/01 00:47:34;;;;;;;28.35;17.45;;;3.70;99.90;;;;;;5032941;28;20261;-56
2023/12/01 00:50:02;;;;;;;27.90;16.33;;;3.70;99.90;;;;;;5033052;28;20210;-57
2023/12/01 00:52:30;;;;;;;26.58;16.10;;;3.70;99.90;;;;;;5033176;28;20207;-57
2023/12/01 00:54:59;;;;;;;26.60;16.58;;;3.70;99.90;;;;;;5030093;28;20291;-55
2023/12/01 00:57:27;;;;;;;25.98;15.73;;;3.80;99.90;;;;;;5030693;28;20257;-58
2023/12/01 00:59:55;;;;;;;25.25;15.10;;;3.70;99.90;;;;;;5031768;28;20719;-59
2023/12/01 01:02:23;;;;;;;21.02;14.65;;;3.70;99.90;;;;;;5032306;28;20298;-54
2023/12/01 01:04:51;;;;;;;24.75;15.57;;;3.70;99.90;;;;;;5032834;28;20627;-55
2023/12/01 01:07:19;;;;;;;21.02;14.13;;;3.70;99.90;;;;;;5032923;28;20210;-54
2023/12/01 01:09:47;;;;;;;21.95;14.77;;;3.70;99.90;;;;;;5032648;28;20223;-55
2023/12/01 01:12:16;;;;;;;22.05;15.05;;;3.70;99.90;;;;;;5041113;28;20215;-55
2023/12/01 01:14:44;;;;;;;22.60;15.70;;;3.70;99.90;;;;;;5032501;28;20645;-56
2023/12/01 01:17:12;;;;;;;20.70;14.65;;;3.70;99.90;;;;;;5040737;28;20198;-57
2023/12/01 01:19:40;;;;;;;21.42;14.38;;;3.70;99.90;;;;;;5033303;28;20227;-59
2023/12/01 01:22:07;;;;;;;24.67;15.15;;;3.70;99.90;;;;;;5033460;28;20206;-56
2023/12/01 01:24:35;;;;;;;23.92;15.15;;;3.60;99.90;;;;;;5032992;28;20242;-56
2023/12/01 01:27:04;;;;;;;28.00;16.70;;;3.60;99.90;;;;;;5032911;28;20206;-57
2023/12/01 01:29:34;;;;;;;24.13;16.02;;;3.60;99.90;;;;;;5031677;28;20277;-53
2023/12/01 01:32:01;;;;;;;28.42;17.00;;;3.70;99.90;;;;;;5032781;28;20302;-55
2023/12/01 01:34:29;;;;;;;24.67;16.27;;;3.60;99.90;;;;;;5031863;28;20215;-55
2023/12/01 01:36:57;;;;;;;20.88;14.98;;;3.60;99.90;;;;;;5032061;28;20242;-54
2023/12/01 01:39:27;;;;;;;24.15;15.30;;;3.70;99.90;;;;;;5031682;28;20719;-56
2023/12/01 01:41:56;;;;;;;22.45;15.13;;;3.70;99.90;;;;;;5031706;28;20210;-54
2023/12/01 01:44:24;;;;;;;20.73;13.68;;;3.70;99.90;;;;;;5031759;28;20258;-54
2023/12/01 01:46:53;;;;;;;22.27;15.32;;;3.70;99.90;;;;;;5031904;28;20230;-54
2023/12/01 01:49:25;;;;;;;21.45;13.80;;;3.60;99.90;;;;;;5031422;28;20799;-55
2023/12/01 01:51:52;;;;;;;22.10;14.30;;;3.60;99.90;;;;;;5031618;28;20293;-59
2023/12/01 01:54:21;;;;;;;20.88;14.43;;;3.60;99.90;;;;;;5031351;28;20653;-59
2023/12/01 01:56:49;;;;;;;21.88;14.95;;;3.60;99.90;;;;;;5031786;28;20226;-59
2023/12/01 01:59:19;;;;;;;20.58;14.20;;;3.60;99.90;;;;;;5031473;28;20623;-58
2023/12/01 02:01:47;;;;;;;19.65;13.00;;;3.60;99.90;;;;;;5031633;28;20325;-54
2023/12/01 02:04:17;;;;;;;18.92;12.88;;;3.60;99.90;;;;;;5031392;28;20218;-54
2023/12/01 02:06:45;;;;;;;15.40;11.18;;;3.60;99.90;;;;;;5023788;28;20234;-54
2023/12/01 02:09:14;;;;;;;12.85;9.65;;;3.60;99.90;;;;;;5031256;28;20762;-54
2023/12/01 02:11:42;;;;;;;10.52;8.05;;;3.50;99.90;;;;;;5023518;28;20238;-54
2023/12/01 02:14:09;;;;;;;11.52;8.98;;;3.50;99.90;;;;;;5031368;28;20289;-54
2023/12/01 02:16:45;;;;;;;10.93;8.23;;;3.40;99.90;;;;;;5031293;28;20219;-56
2023/12/01 02:19:13;;;;;;;8.93;7.00;;;3.40;99.90;;;;;;5030948;28;20222;-59
2023/12/01 02:21:44;;;;;;;8.30;6.97;;;3.40;99.90;;;;;;5023215;28;20276;-54
2023/12/01 02:24:12;;;;;;;10.38;7.47;;;3.40;99.90;;;;;;5031294;28;20320;-54
2023/12/01 02:26:40;;;;;;;9.30;7.55;;;3.40;99.90;;;;;;5031170;28;20260;-54
2023/12/01 02:29:08;;;;;;;8.73;6.97;;;3.40;99.90;;;;;;5030797;28;20389;-54
2023/12/01 02:31:36;;;;;;;10.43;8.18;;;3.40;99.90;;;;;;5030882;28;20260;-56
2023/12/01 02:34:04;;;;;;;10.38;7.03;;;3.40;99.90;;;;;;5031231;28;20222;-54
2023/12/01 02:36:32;;;;;;;8.38;7.03;;;3.40;99.90;;;;;;5027822;28;20653;-55
2023/12/01 02:39:02;;;;;;;9.35;7.30;;;3.40;99.90;;;;;;5031040;28;20226;-55
2023/12/01 02:41:30;;;;;;;9.45;7.50;;;3.40;99.90;;;;;;5030546;28;20210;-56
2023/12/01 02:43:58;;;;;;;7.45;6.45;;;3.40;99.90;;;;;;5039588;28;20257;-56
2023/12/01 02:46:26;;;;;;;8.32;6.70;;;3.40;99.90;;;;;;5030681;28;20688;-59
2023/12/01 02:48:54;;;;;;;9.57;7.18;;;3.40;99.90;;;;;;5031012;28;20269;-59
2023/12/01 02:51:23;;;;;;;8.82;7.13;;;3.30;99.90;;;;;;5030639;28;20203;-54
2023/12/01 02:53:51;;;;;;;7.95;6.93;;;3.40;99.90;;;;;;5026311;28;20213;-56
2023/12/01 02:56:20;;;;;;;8.93;7.32;;;3.40;99.90;;;;;;5025701;28;20290;-54
2023/12/01 02:58:48;;;;;;;8.65;6.97;;;3.40;99.90;;;;;;5021308;28;20254;-53
2023/12/01 03:01:16;;;;;;;10.38;7.68;;;3.40;99.90;;;;;;5030418;28;20281;-53
2023/12/01 03:03:44;;;;;;;9.73;7.32;;;3.40;99.90;;;;;;5030763;28;20219;-59
2023/12/01 03:06:12;;;;;;;9.18;7.45;;;3.40;99.90;;;;;;5030586;28;20202;-55
2023/12/01 03:08:40;;;;;;;8.60;6.57;;;3.30;99.90;;;;;;5030509;28;20233;-54
2023/12/01 03:11:08;;;;;;;9.05;7.05;;;3.30;99.90;;;;;;5030742;28;20632;-54
2023/12/01 03:13:37;;;;;;;8.50;6.95;;;3.30;99.90;;;;;;5031040;28;20256;-54
2023/12/01 03:16:05;;;;;;;8.68;7.38;;;3.30;99.90;;;;;;5030467;28;20253;-56
2023/12/01 03:18:35;;;;;;;10.50;7.18;;;3.30;99.90;;;;;;5030557;28;20323;-54
2023/12/01 03:21:03;;;;;;;7.22;6.22;;;3.30;99.90;;;;;;5030446;28;20311;-58
2023/12/01 03:23:31;;;;;;;7.90;6.75;;;3.30;99.90;;;;;;5030774;28;20203;-54
2023/12/01 03:25:59;;;;;;;8.48;6.63;;;3.30;99.90;;;;;;5030571;28;20245;-58
2023/12/01 03:28:27;;;;;;;7.68;6.22;;;3.30;99.90;;;;;;5030521;28;20768;-57
2023/12/01 03:30:56;;;;;;;5.95;5.35;;;3.30;99.90;;;;;;5030545;28;20818;-54
2023/12/01 03:33:24;;;;;;;7.95;6.40;;;3.30;99.90;;;;;;5032276;28;20703;-54
2023/12/01 03:35:51;;;;;;;6.57;5.70;;;3.30;99.90;;;;;;5030347;28;20203;-54
2023/12/01 03:38:19;;;;;;;8.07;6.07;;;3.30;99.90;;;;;;5030742;28;20230;-56
2023/12/01 03:40:47;;;;;;;6.85;5.93;;;3.30;99.90;;;;;;5032788;28;20230;-57
2023/12/01 03:43:15;;;;;;;8.68;6.18;;;3.30;99.90;;;;;;5034195;28;20746;-60
2023/12/01 03:45:43;;;;;;;8.25;5.97;;;3.30;99.90;;;;;;5033773;28;20799;-58
2023/12/01 03:48:12;;;;;;;6.53;5.65;;;3.30;99.90;;;;;;5034004;28;20231;-54
2023/12/01 03:50:40;;;;;;;6.35;5.55;;;3.30;99.90;;;;;;5033645;28;20242;-54
2023/12/01 03:53:08;;;;;;;5.05;4.60;;;3.30;99.90;;;;;;5034137;28;20293;-54
2023/12/01 03:55:36;;;;;;;7.45;5.93;;;3.30;99.90;;;;;;5033674;28;20702;-55
2023/12/01 03:58:04;;;;;;;7.22;5.55;;;3.30;99.90;;;;;;5034043;28;20226;-56
2023/12/01 04:00:32;;;;;;;6.65;5.18;;;3.30;99.90;;;;;;5033664;28;20202;-57
2023/12/01 04:03:01;;;;;;;6.05;4.78;;;3.30;99.90;;;;;;5033506;28;20319;-54
2023/12/01 04:05:30;;;;;;;7.00;5.43;;;3.30;99.90;;;;;;5033297;28;20223;-53
2023/12/01 04:07:58;;;;;;;7.60;5.25;;;3.30;99.90;;;;;;5033879;28;20317;-56
2023/12/01 04:10:27;;;;;;;7.30;5.22;;;3.20;99.90;;;;;;5041890;28;20252;-54
2023/12/01 04:12:56;;;;;;;7.03;4.93;;;3.20;99.90;;;;;;5033706;28;20601;-59
2023/12/01 04:15:25;;;;;;;6.82;5.10;;;3.30;99.90;;;;;;5033369;28;20226;-59
2023/12/01 04:17:54;;;;;;;8.15;5.47;;;3.20;99.90;;;;;;5033584;28;20219;-57
2023/12/01 04:20:21;;;;;;;5.65;4.93;;;3.30;99.90;;;;;;5033268;28;20203;-56
2023/12/01 04:22:52;;;;;;;6.25;5.28;;;3.30;99.90;;;;;;5033455;28;20593;-54
2023/12/01 04:25:20;;;;;;;6.32;5.25;;;3.30;99.90;;;;;;5033189;28;20563;-56
2023/12/01 04:27:48;;;;;;;5.22;4.70;;;3.20;99.90;;;;;;5033181;28;20234;-58
2023/12/01 04:30:17;;;;;;;5.47;4.70;;;3.20;99.90;;;;;;5033296;28;20209;-54
2023/12/01 04:32:47;;;;;;;6.53;5.05;;;3.20;99.90;;;;;;5035190;28;20234;-54
2023/12/01 04:35:15;;;;;;;4.80;4.32;;;3.30;99.90;;;;;;5033197;28;20195;-54
2023/12/01 04:37:43;;;;;;;5.15;4.65;;;3.30;99.90;;;;;;5032979;28;20241;-54
2023/12/01 04:40:16;;;;;;;5.40;4.90;;;3.20;99.90;;;;;;5033076;28;20226;-54
2023/12/01 04:42:45;;;;;;;5.18;4.68;;;3.30;99.90;;;;;;5032811;28;20268;-53
2023/12/01 04:45:13;;;;;;;4.97;4.40;;;3.30;99.90;;;;;;5032637;28;20223;-55
2023/12/01 04:47:41;;;;;;;4.90;4.50;;;3.30;99.90;;;;;;5032833;28;20621;-54
2023/12/01 04:50:13;;;;;;;4.47;4.07;;;3.30;99.90;;;;;;5032805;28;20583;-54
2023/12/01 04:52:42;;;;;;;4.53;3.90;;;3.30;99.90;;;;;;5031422;28;20617;-58
2023/12/01 04:55:11;;;;;;;4.63;4.22;;;3.30;99.90;;;;;;5040627;28;20203;-54
2023/12/01 04:57:41;;;;;;;5.25;4.55;;;3.30;99.90;;;;;;5032682;28;20243;-54
2023/12/01 05:00:19;;;;;;;5.13;4.63;;;3.40;99.90;;;;;;5032722;28;20303;-58
2023/12/01 05:02:49;;;;;;;4.28;3.88;;;3.30;99.90;;;;;;5032482;28;20206;-54
2023/12/01 05:05:17;;;;;;;4.93;4.22;;;3.40;99.90;;;;;;5031857;28;20214;-55
2023/12/01 05:07:45;;;;;;;4.32;3.92;;;3.40;99.90;;;;;;5032395;28;20213;-59
2023/12/01 05:10:15;;;;;;;4.85;3.60;;;3.30;99.90;;;;;;5032653;28;20202;-59
2023/12/01 05:12:45;;;;;;;5.38;3.35;;;3.40;99.90;;;;;;5032352;28;20203;-57
2023/12/01 05:15:19;;;;;;;3.78;3.35;;;3.30;99.90;;;;;;5032282;28;20266;-54
2023/12/01 05:17:48;;;;;;;3.50;3.20;;;3.30;99.90;;;;;;5032180;28;20290;-61
2023/12/01 05:20:16;;;;;;;5.72;3.22;;;3.30;99.90;;;;;;5025578;28;20214;-54
2023/12/01 05:22:45;;;;;;;3.72;3.45;;;3.30;99.90;;;;;;5031037;28;20202;-54
2023/12/01 05:25:14;;;;;;;3.55;3.25;;;3.30;99.90;;;;;;5031854;28;20333;-59
2023/12/01 05:27:46;;;;;;;3.55;3.35;;;3.30;99.90;;;;;;5032104;28;20688;-54
2023/12/01 05:30:14;;;;;;;4.00;3.70;;;3.30;99.90;;;;;;5032131;28;20249;-57
2023/12/01 05:32:43;;;;;;;3.08;2.88;;;3.30;99.90;;;;;;5029801;28;20301;-54
2023/12/01 05:35:13;;;;;;;4.50;4.03;;;3.30;99.90;;;;;;5031879;28;20195;-54
2023/12/01 05:37:46;;;;;;;5.03;4.07;;;3.30;99.90;;;;;;5031999;28;20234;-55
2023/12/01 05:40:14;;;;;;;4.30;3.90;;;3.20;99.90;;;;;;5031829;28;20636;-59
2023/12/01 05:42:42;;;;;;;6.07;4.60;;;3.20;99.90;;;;;;5031710;28;20289;-56
2023/12/01 05:45:12;;;;;;;4.03;3.72;;;3.20;99.90;;;;;;5031348;28;20233;-55
2023/12/01 05:47:44;;;;;;;4.53;4.13;;;3.20;99.90;;;;;;5031909;28;20234;-59
2023/12/01 05:50:13;;;;;;;6.22;4.57;;;3.20;99.90;;;;;;5029350;28;20213;-54
2023/12/01 05:52:42;;;;;;;7.70;4.72;;;3.20;99.90;;;;;;5031257;28;20211;-54
2023/12/01 05:55:14;;;;;;;6.32;5.40;;;3.20;99.90;;;;;;5031382;28;20214;-58
2023/12/01 05:57:44;;;;;;;5.57;5.00;;;3.20;99.90;;;;;;5031783;28;20211;-54
2023/12/01 06:00:15;;;;;;;5.82;5.32;;;3.20;99.90;;;;;;5031471;28;20293;-54
2023/12/01 06:02:43;;;;;;;7.22;6.43;;;3.30;99.90;;;;;;5031032;28;20691;-56
2023/12/01 06:05:12;;;;;;;8.60;7.00;;;3.30;99.90;;;;;;5031266;28;20258;-56
2023/12/01 06:07:43;;;;;;;10.85;7.60;;;3.30;99.90;;;;;;5031390;28;20619;-56
2023/12/01 06:10:11;;;;;;;9.32;8.43;;;3.30;99.90;;;;;;5031274;28;20731;-55
2023/12/01 06:12:39;;;;;;;9.57;7.43;;;3.20;99.90;;;;;;5031569;28;20660;-56
2023/12/01 06:15:09;;;;;;;22.35;17.02;;;3.20;99.90;;;;;;5032050;28;20221;-58
2023/12/01 06:17:38;;;;;;;13.80;10.85;;;3.20;99.90;;;;;;5031615;28;20203;-55
2023/12/01 06:20:16;;;;;;;8.68;7.20;;;3.20;99.90;;;;;;5030777;28;20237;-54
2023/12/01 06:22:47;;;;;;;9.32;6.47;;;3.20;99.90;;;;;;5030972;28;20249;-59
2023/12/01 06:25:16;;;;;;;7.72;6.65;;;3.20;99.90;;;;;;5026445;28;20226;-55
2023/12/01 06:27:44;;;;;;;8.68;6.72;;;3.20;99.90;;;;;;5031073;28;20260;-54
2023/12/01 06:30:13;;;;;;;6.95;6.25;;;3.20;99.90;;;;;;5031048;28;20230;-54
2023/12/01 06:32:42;;;;;;;7.03;6.13;;;3.20;99.90;;;;;;5034062;28;20253;-59
2023/12/01 06:35:11;;;;;;;7.75;6.93;;;3.20;99.90;;;;;;5030934;28;20214;-54
2023/12/01 06:37:39;;;;;;;9.52;6.22;;;3.20;99.90;;;;;;5030956;28;20202;-56
2023/12/01 06:40:11;;;;;;;7.03;6.30;;;3.10;99.90;;;;;;5031254;28;20199;-57
2023/12/01 06:42:41;;;;;;;8.05;5.72;;;3.10;99.90;;;;;;5031027;28;20211;-58
2023/12/01 06:45:11;;;;;;;6.47;5.55;;;3.10;99.90;;;;;;5030913;28;20213;-54
2023/12/01 06:47:40;;;;;;;5.68;5.18;;;3.10;99.90;;;;;;5030939;28;20298;-54
2023/12/01 06:50:14;;;;;;;6.15;5.55;;;3.10;99.90;;;;;;5030809;28;20209;-54
2023/12/01 06:52:42;;;;;;;6.50;5.32;;;3.10;99.90;;;;;;5031045;28;20222;-55
2023/12/01 06:55:11;;;;;;;6.50;5.85;;;3.10;99.90;;;;;;5030733;28;20276;-54
2023/12/01 06:57:39;;;;;;;5.97;4.82;;;3.10;99.90;;;;;;5030866;28;20230;-54
2023/12/01 07:00:08;;;;;;;6.55;5.55;;;3.10;99.90;;;;;;5045204;23;20240;-62
2023/12/01 07:02:38;;;;;;;6.90;5.75;;;3.10;99.90;;;;;;5030593;28;20690;-61
2023/12/01 07:05:07;;;;;;;10.82;7.28;;;3.10;99.90;;;;;;5030599;28;20298;-62
2023/12/01 07:07:37;;;;;;;8.65;7.03;;;3.10;99.90;;;;;;5030654;28;20265;-62
2023/12/01 07:10:06;;;;;;;7.38;6.38;;;3.20;99.90;;;;;;5024524;28;20234;-61
2023/12/01 07:12:35;;;;;;;7.10;5.45;;;3.20;99.90;;;;;;5024209;28;20305;-62
2023/12/01 07:15:03;;;;;;;8.18;5.70;;;3.20;99.90;;;;;;5030191;28;20210;-61
2023/12/01 07:17:31;;;;;;;8.98;5.90;;;3.20;99.90;;;;;;5034943;28;20199;-62
2023/12/01 07:19:59;;;;;;;7.18;5.15;;;3.20;99.90;;;;;;5034519;28;20227;-61
2023/12/01 07:22:27;;;;;;;5.80;5.20;;;3.10;99.90;;;;;;5033544;28;20202;-62
2023/12/01 07:24:56;;;;;;;5.72;5.10;;;3.10;99.90;;;;;;5033935;28;20306;-62
2023/12/01 07:27:25;;;;;;;8.52;5.18;;;3.20;99.90;;;;;;5034490;28;20234;-61
2023/12/01 07:29:53;;;;;;;5.20;4.68;;;3.20;99.90;;;;;;5034055;28;20292;-61
2023/12/01 07:32:21;;;;;;;7.10;5.28;;;3.20;99.90;;;;;;5034198;28;20206;-60
2023/12/01 07:34:49;;;;;;;7.00;5.82;;;3.20;99.90;;;;;;5034011;28;20654;-61
2023/12/01 07:37:17;;;;;;;5.95;5.20;;;3.20;99.90;;;;;;5034222;28;20715;-61
2023/12/01 07:39:44;;;;;;;6.70;5.60;;;3.20;99.90;;;;;;5032848;28;20238;-61
2023/12/01 07:42:14;;;;;;;7.72;5.25;;;3.20;99.90;;;;;;5034033;28;20288;-60
2023/12/01 07:44:42;;;;;;;6.10;4.95;;;3.20;99.90;;;;;;5034049;28;20261;-60
2023/12/01 07:47:11;;;;;;;6.85;5.40;;;3.30;99.90;;;;;;5033993;28;20250;-62
2023/12/01 07:49:40;;;;;;;6.13;5.47;;;3.20;99.90;;;;;;5033026;28;20719;-61
2023/12/01 07:52:08;;;;;;;5.97;5.38;;;3.30;99.90;;;;;;5033685;28;20198;-61
2023/12/01 07:54:36;;;;;;;7.15;5.60;;;3.20;99.90;;;;;;5034161;28;20217;-61
2023/12/01 07:57:04;;;;;;;6.22;5.38;;;3.20;99.90;;;;;;5033789;28;20205;-62
2023/12/01 07:59:33;;;;;;;8.15;5.57;;;3.20;99.90;;;;;;5033632;28;20317;-63
2023/12/01 08:02:01;;;;;;;6.28;5.68;;;3.20;99.90;;;;;;5032457;28;20234;-62
2023/12/01 08:04:31;;;;;;;7.28;5.78;;;3.20;99.90;;;;;;5032716;28;20202;-61
2023/12/01 08:06:59;;;;;;;8.98;6.13;;;3.20;99.90;;;;;;5032356;28;20280;-61
2023/12/01 08:09:31;;;;;;;8.73;5.38;;;3.20;99.90;;;;;;5033656;28;20327;-62
2023/12/01 08:11:59;;;;;;;6.63;5.63;;;3.20;99.90;;;;;;5033071;28;20207;-60
2023/12/01 08:14:27;;;;;;;6.13;5.50;;;3.30;99.90;;;;;;5033402;28;20238;-62
2023/12/01 08:16:56;;;;;;;10.13;6.50;;;3.30;99.90;;;;;;5032914;28;20206;-61
2023/12/01 08:19:24;;;;;;;8.45;6.10;;;3.30;99.90;;;;;;5033532;28;20276;-62
2023/12/01 08:21:52;;;;;;;6.18;5.57;;;3.30;99.90;;;;;;5033003;28;20261;-61
2023/12/01 08:24:20;;;;;;;7.70;6.25;;;3.30;99.90;;;;;;5033778;28;20208;-62
2023/12/01 08:26:59;;;;;;;7.88;6.68;;;3.30;99.90;;;;;;5032981;28;20241;-61
2023/12/01 08:29:27;;;;;;;8.40;6.32;;;3.30;99.90;;;;;;5033318;28;20219;-61
2023/12/01 08:31:59;;;;;;;12.13;7.07;;;3.30;99.90;;;;;;5032918;28;20660;-62
2023/12/01 08:34:28;;;;;;;8.23;6.43;;;3.30;99.90;;;;;;5033373;28;20206;-62
2023/12/01 08:36:55;;;;;;;8.27;6.82;;;3.40;99.90;;;;;;5032940;28;20590;-62
2023/12/01 08:39:23;;;;;;;12.15;7.20;;;3.40;99.90;;;;;;5033241;28;20234;-62
2023/12/01 08:41:53;;;;;;;17.30;10.68;;;3.30;99.90;;;;;;5032664;28;20210;-61
2023/12/01 08:44:21;;;;;;;13.07;8.55;;;3.30;99.90;;;;;;5033160;28;20612;-61
2023/12/01 08:46:49;;;;;;;10.40;8.10;;;3.30;99.90;;;;;;5032688;28;20352;-61
2023/12/01 08:49:19;;;;;;;10.57;8.23;;;3.30;99.90;;;;;;5033075;28;20258;-61
2023/12/01 08:51:47;;;;;;;13.20;8.27;;;3.30;99.90;;;;;;5032619;28;20211;-61
2023/12/01 08:54:14;;;;;;;16.15;9.23;;;3.30;99.90;;;;;;5033113;28;20253;-62
2023/12/01 08:56:49;;;;;;;10.70;7.72;;;3.30;99.90;;;;;;5032335;28;20858;-61
2023/12/01 08:59:17;;;;;;;11.00;7.85;;;3.40;99.90;;;;;;5027443;28;20700;-61
2023/12/01 09:01:45;;;;;;;11.30;7.97;;;3.40;99.90;;;;;;5012874;28;20211;-61
2023/12/01 09:04:13;;;;;;;13.98;9.05;;;3.50;99.90;;;;;;5013347;28;20213;-62
2023/12/01 09:06:43;;;;;;;10.32;8.50;;;3.50;99.90;;;;;;5012244;28;20227;-61
2023/12/01 09:09:12;;;;;;;11.13;7.88;;;3.50;99.90;;;;;;5012618;28;20711;-61
2023/12/01 09:11:40;;;;;;;11.35;8.73;;;3.60;99.90;;;;;;5012526;28;20269;-62
2023/12/01 09:14:08;;;;;;;15.27;10.40;;;3.60;99.90;;;;;;5013113;28;20203;-62
2023/12/01 09:16:36;;;;;;;11.05;8.45;;;3.50;99.90;;;;;;5012391;28;20673;-62
2023/12/01 09:19:04;;;;;;;12.07;8.93;;;3.60;99.90;;;;;;5012607;28;20262;-62
2023/12/01 09:21:34;;;;;;;11.25;8.52;;;3.60;99.90;;;;;;5012372;28;20211;-62
2023/12/01 09:24:04;;;;;;;10.65;8.27;;;3.60;99.90;;;;;;5012706;28;20297;-62
2023/12/01 09:26:32;;;;;;;12.80;9.15;;;3.70;99.90;;;;;;5010841;28;20214;-62
2023/12/01 09:29:00;;;;;;;12.02;9.18;;;3.70;99.90;;;;;;5011735;28;20258;-62
2023/12/01 09:31:28;;;;;;;12.88;9.32;;;3.70;99.90;;;;;;5013936;28;20633;-62
2023/12/01 09:33:56;;;;;;;15.85;10.82;;;3.70;99.90;;;;;;5013623;28;20207;-61
2023/12/01 09:36:25;;;;;;;16.30;9.38;;;3.70;99.90;;;;;;5011843;28;20250;-62
2023/12/01 09:38:54;;;;;;;16.40;9.77;;;3.70;99.90;;;;;;5011548;28;20273;-61
2023/12/01 09:41:24;;;;;;;12.82;8.82;;;3.80;99.90;;;;;;5012146;28;20207;-63
2023/12/01 09:43:51;;;;;;;11.77;8.90;;;3.70;99.90;;;;;;5012031;28;20214;-63
2023/12/01 09:46:34;;;;;;;11.88;8.35;;;3.70;99.90;;;;;;5011726;28;20207;-63
2023/12/01 09:49:03;;;;;;;12.95;9.38;;;3.70;99.90;;;;;;5012150;28;20254;-63
2023/12/01 09:51:34;;;;;;;14.02;9.18;;;3.70;99.90;;;;;;5012016;28;20258;-63
2023/12/01 09:54:02;;;;;;;14.00;9.55;;;3.70;99.90;;;;;;5011115;28;20211;-61
2023/12/01 09:56:32;;;;;;;11.65;8.85;;;3.70;99.90;;;;;;5011096;28;20707;-60
2023/12/01 09:59:00;;;;;;;13.90;8.73;;;3.70;99.90;;;;;;5019562;28;20317;-62
2023/12/01 10:01:28;;;;;;;12.68;8.20;;;3.70;99.90;;;;;;5031508;28;20716;-61
2023/12/01 10:03:56;;;;;;;12.30;9.52;;;3.70;99.90;;;;;;5031599;28;20856;-60
2023/12/01 10:06:24;;;;;;;11.73;8.93;;;3.70;99.90;;;;;;5031426;28;20586;-61
2023/12/01 10:08:52;;;;;;;11.32;8.40;;;3.70;99.90;;;;;;5031285;28;20241;-61
2023/12/01 10:11:21;;;;;;;10.55;8.30;;;3.70;99.90;;;;;;5031264;28;20209;-61
2023/12/01 10:13:51;;;;;;;11.07;8.07;;;3.70;99.90;;;;;;5031120;28;20229;-61
2023/12/01 10:16:19;;;;;;;10.02;8.05;;;3.70;99.90;;;;;;5031328;28;20205;-62
2023/12/01 10:18:59;;;;;;;8.43;7.53;;;3.80;99.90;;;;;;5031118;28;20621;-61
2023/12/01 10:21:43;;;;;;;9.93;7.45;;;3.70;99.90;;;;;;5031101;28;20584;-61
2023/12/01 10:24:20;;;;;;;9.93;7.15;;;3.70;99.90;;;;;;5029621;28;20221;-61
2023/12/01 10:26:49;;;;;;;8.88;6.50;;;3.70;99.90;;;;;;5030847;28;20206;-61
2023/12/01 10:29:28;;;;;;;7.72;6.93;;;3.60;99.90;;;;;;5031151;28;20691;-61
2023/12/01 10:32:00;;;;;;;9.43;6.80;;;3.60;99.90;;;;;;5030881;28;20214;-61
2023/12/01 10:34:28;;;;;;;7.30;6.25;;;3.60;99.90;;;;;;5030951;28;20628;-61
2023/12/01 10:36:56;;;;;;;6.97;6.13;;;3.60;99.90;;;;;;5029401;28;20253;-61
2023/12/01 10:39:27;;;;;;;7.13;5.85;;;3.60;99.90;;;;;;5031016;28;20257;-61
2023/12/01 10:41:56;;;;;;;10.00;6.55;;;3.60;99.90;;;;;;5030939;28;20206;-61
2023/12/01 10:44:32;;;;;;;8.88;6.28;;;3.60;99.90;;;;;;5031267;28;20268;-62
2023/12/01 10:47:00;;;;;;;7.53;6.43;;;3.60;99.90;;;;;;5030503;28;20214;-61
2023/12/01 10:49:28;;;;;;;8.40;6.72;;;3.70;99.90;;;;;;5030103;28;20223;-61
2023/12/01 10:51:56;;;;;;;8.23;6.15;;;3.70;99.90;;;;;;5034612;28;20237;-61
2023/12/01 10:54:27;;;;;;;6.60;5.70;;;3.70;99.90;;;;;;5035275;28;20585;-61
2023/12/01 10:57:11;;;;;;;8.70;6.60;;;3.70;99.90;;;;;;5034631;28;20660;-61
2023/12/01 10:59:40;;;;;;;6.32;5.32;;;3.80;99.90;;;;;;5034709;28;20226;-62
2023/12/01 11:02:08;;;;;;;6.40;5.53;;;3.80;99.90;;;;;;5034483;28;20627;-62
2023/12/01 11:04:36;;;;;;;4.82;4.43;;;3.80;99.90;;;;;;5034758;28;20214;-61
2023/12/01 11:07:18;;;;;;;6.10;5.30;;;3.80;99.90;;;;;;5034542;28;20202;-61
2023/12/01 11:09:58;;;;;;;5.32;4.82;;;3.80;99.90;;;;;;5034790;28;20238;-61
2023/12/01 11:12:30;;;;;;;14.88;7.95;;;3.90;99.90;;;;;;5034820;28;20289;-63
2023/12/01 11:15:12;;;;;;;6.60;5.32;;;3.90;99.90;;;;;;5034688;28;20293;-61
2023/12/01 11:17:40;;;;;;;7.93;5.95;;;3.90;99.90;;;;;;5035081;28;20248;-61
2023/12/01 11:20:32;;;;;;;5.93;4.80;;;3.90;99.90;;;;;;5034196;28;20238;-61
2023/12/01 11:23:23;;;;;;;5.22;4.65;;;3.90;99.90;;;;;;5034587;28;20626;-61
2023/12/01 11:25:55;;;;;;;5.75;4.88;;;3.80;99.90;;;;;;5034275;28;20541;-61
2023/12/01 11:28:28;;;;;;;9.20;6.28;;;3.80;99.90;;;;;;5033475;28;20232;-61
2023/12/01 11:31:08;;;;;;;5.85;4.70;;;3.80;99.90;;;;;;5033733;28;20321;-61
2023/12/01 11:33:39;;;;;;;4.50;4.10;;;3.80;99.90;;;;;;5029636;28;20245;-61
2023/12/01 11:36:27;;;;;;;4.45;4.05;;;3.80;99.90;;;;;;5034056;28;20755;-61
2023/12/01 11:39:11;;;;;;;4.53;4.13;;;3.70;99.90;;;;;;5034209;28;20273;-61
2023/12/01 11:41:39;;;;;;;4.20;3.90;;;3.80;99.90;;;;;;5034337;28;20286;-62
2023/12/01 11:44:10;;;;;;;7.60;6.28;;;3.80;99.90;;;;;;5034094;28;20684;-62
2023/12/01 11:46:39;;;;;;;6.28;5.63;;;3.80;99.90;;;;;;5034062;28;20211;-62
2023/12/01 11:49:08;;;;;;;8.15;5.68;;;3.80;99.90;;;;;;5033994;28;20284;-62
2023/12/01 11:51:36;;;;;;;4.95;4.50;;;3.80;99.90;;;;;;5033582;28;20211;-63
2023/12/01 11:54:04;;;;;;;5.03;4.30;;;3.80;99.90;;;;;;5034080;28;20289;-62
2023/12/01 11:56:32;;;;;;;7.03;4.95;;;3.80;99.90;;;;;;5033934;28;20207;-62
2023/12/01 11:59:01;;;;;;;8.35;5.50;;;3.80;99.90;;;;;;5033860;28;20295;-62
2023/12/01 12:01:30;;;;;;;7.28;5.18;;;3.70;99.90;;;;;;5032845;28;20286;-62
2023/12/01 12:03:59;;;;;;;6.45;5.18;;;3.70;99.90;;;;;;5033812;28;20218;-62
2023/12/01 12:06:28;;;;;;;5.15;4.65;;;3.70;99.90;;;;;;5033492;28;20701;-62
2023/12/01 12:08:56;;;;;;;5.35;4.85;;;3.70;99.90;;;;;;5030889;28;20311;-62
2023/12/01 12:11:24;;;;;;;5.53;5.00;;;3.70;99.90;;;;;;5030617;28;20620;-62
2023/12/01 12:13:55;;;;;;;6.18;5.65;;;3.80;99.90;;;;;;5033438;28;20214;-62
2023/12/01 12:16:23;;;;;;;5.30;4.80;;;3.80;99.90;;;;;;5033409;28;20205;-63
2023/12/01 12:18:51;;;;;;;6.72;5.65;;;3.80;99.90;;;;;;5033533;28;20328;-63
2023/12/01 12:21:21;;;;;;;6.25;5.30;;;3.80;99.90;;;;;;5033572;28;20289;-63
2023/12/01 12:23:49;;;;;;;5.53;5.05;;;3.80;99.90;;;;;;5033680;28;20202;-62
2023/12/01 12:26:18;;;;;;;5.55;5.00;;;3.80;99.90;;;;;;5033256;28;20361;-62
2023/12/01 12:28:47;;;;;;;10.90;8.02;;;3.70;99.90;;;;;;5033416;28;20704;-62
2023/12/01 12:31:15;;;;;;;8.90;7.47;;;3.70;99.90;;;;;;5032523;28;20290;-62
2023/12/01 12:33:43;;;;;;;8.70;5.70;;;3.60;99.90;;;;;;5031778;28;20217;-63
2023/12/01 12:36:13;;;;;;;6.30;5.70;;;3.70;99.90;;;;;;5031164;28;20245;-62
2023/12/01 12:38:42;;;;;;;7.50;6.20;;;3.60;99.90;;;;;;5033164;28;20222;-63
2023/12/01 12:41:25;;;;;;;7.78;6.40;;;3.60;99.90;;;;;;5032187;28;20213;-63
2023/12/01 12:43:54;;;;;;;8.95;6.40;;;3.60;99.90;;;;;;5032364;28;20203;-63
2023/12/01 12:46:22;;;;;;;8.82;7.05;;;3.50;99.90;;;;;;5032438;28;20264;-62
2023/12/01 12:48:50;;;;;;;10.27;6.10;;;3.50;99.90;;;;;;5032844;28;20226;-62
2023/12/01 12:51:18;;;;;;;9.07;6.80;;;3.50;99.90;;;;;;5032476;28;20212;-62
2023/12/01 12:53:48;;;;;;;9.25;6.47;;;3.60;99.90;;;;;;5032506;28;20238;-62
2023/12/01 12:56:17;;;;;;;8.40;5.90;;;3.60;99.90;;;;;;5031815;28;20241;-62
2023/12/01 12:58:45;;;;;;;7.30;6.22;;;3.60;99.90;;;;;;5058395;22;20222;-73
2023/12/01 13:01:14;;;;;;;7.13;6.13;;;3.70;99.90;;;;;;5060364;28;20210;-74